createdAt,value
2023-04-07T00:02:15.980Z,4.30
2023-04-07T00:04:47.450Z,3.60
2023-04-07T00:07:18.711Z,3.80
2023-04-07T00:09:50.203Z,3.60
2023-04-07T00:12:21.365Z,3.80
2023-04-07T00:14:52.283Z,3.60
2023-04-07T00:17:23.643Z,3.50
2023-04-07T00:19:55.378Z,3.80
2023-04-07T00:22:27.046Z,3.90
2023-04-07T00:24:58.363Z,3.50
2023-04-07T00:27:29.579Z,3.20
2023-04-07T00:30:00.649Z,3.70
2023-04-07T00:32:31.792Z,3.30
2023-04-07T00:35:04.836Z,3.50
2023-04-07T00:37:36.846Z,3.20
2023-04-07T00:40:10.622Z,3.20
2023-04-07T00:42:41.989Z,3.40
2023-04-07T00:45:14.434Z,3.50
2023-04-07T00:47:45.778Z,3.70
2023-04-07T00:50:17.273Z,3.60
2023-04-07T00:52:48.566Z,3.50
2023-04-07T00:55:19.780Z,3.20
2023-04-07T00:57:52.139Z,3.20
2023-04-07T01:00:24.323Z,3.50
2023-04-07T01:03:02.825Z,3.30
2023-04-07T01:05:43.782Z,3.60
2023-04-07T01:08:22.308Z,4.00
2023-04-07T01:10:58.513Z,3.20
2023-04-07T01:13:32.811Z,3.40
2023-04-07T01:16:24.414Z,3.30
2023-04-07T01:18:59.467Z,3.40
2023-04-07T01:21:34.984Z,3.40
2023-04-07T01:24:21.290Z,3.90
2023-04-07T01:26:53.013Z,3.40
2023-04-07T01:29:40.482Z,3.40
2023-04-07T01:32:14.035Z,3.40
2023-04-07T01:34:46.750Z,3.60
2023-04-07T01:37:19.130Z,3.50
2023-04-07T01:39:50.549Z,3.20
2023-04-07T01:42:23.309Z,3.40
2023-04-07T01:44:55.243Z,3.30
2023-04-07T01:47:30.702Z,3.20
2023-04-07T01:50:04.173Z,3.10
2023-04-07T01:52:36.344Z,3.30
2023-04-07T01:55:09.898Z,3.50
2023-04-07T01:57:46.477Z,3.30
2023-04-07T02:00:22.043Z,3.40
2023-04-07T02:03:08.908Z,3.60
2023-04-07T02:05:41.530Z,3.30
2023-04-07T02:08:18.053Z,3.40
2023-04-07T02:10:52.167Z,3.50
2023-04-07T02:13:25.230Z,3.80
2023-04-07T02:15:58.662Z,3.10
2023-04-07T02:18:32.453Z,3.40
2023-04-07T02:21:05.871Z,3.90
2023-04-07T02:23:39.230Z,3.30
2023-04-07T02:26:11.050Z,3.50
2023-04-07T02:28:42.335Z,3.20
2023-04-07T02:31:14.736Z,3.40
2023-04-07T02:33:46.347Z,3.60
2023-04-07T02:36:17.452Z,3.40
2023-04-07T02:38:48.661Z,3.10
2023-04-07T02:41:20.306Z,3.30
2023-04-07T02:43:51.687Z,3.20
2023-04-07T02:46:22.892Z,3.40
2023-04-07T02:48:55.502Z,3.10
2023-04-07T02:51:27.214Z,3.30
2023-04-07T02:53:58.586Z,3.20
2023-04-07T02:56:29.432Z,3.10
2023-04-07T02:59:00.710Z,3.80
2023-04-07T03:01:33.038Z,3.30
2023-04-07T03:04:04.735Z,3.20
2023-04-07T03:06:35.971Z,3.20
2023-04-07T03:09:11.636Z,3.20
2023-04-07T03:11:43.912Z,3.50
2023-04-07T03:14:14.905Z,3.30
2023-04-07T03:16:50.093Z,3.20
2023-04-07T03:19:21.791Z,3.10
2023-04-07T03:21:54.720Z,3.20
2023-04-07T03:24:26.473Z,3.20
2023-04-07T03:26:57.440Z,3.10
2023-04-07T03:29:38.397Z,3.10
2023-04-07T03:32:10.961Z,3.50
2023-04-07T03:34:42.220Z,3.30
2023-04-07T03:37:13.552Z,3.40
2023-04-07T03:39:45.177Z,2.80
2023-04-07T03:42:30.586Z,3.00
2023-04-07T03:45:05.932Z,3.50
2023-04-07T03:47:38.358Z,3.40
2023-04-07T03:50:11.560Z,2.90
2023-04-07T03:52:51.774Z,3.00
2023-04-07T03:55:30.673Z,3.10
2023-04-07T03:58:06.036Z,3.30
2023-04-07T04:00:38.998Z,3.30
2023-04-07T04:03:14.492Z,3.40
2023-04-07T04:06:05.930Z,3.00
2023-04-07T04:08:37.227Z,3.10
2023-04-07T04:11:09.604Z,3.10
2023-04-07T04:13:46.939Z,3.10
2023-04-07T04:16:18.549Z,3.30
2023-04-07T04:18:51.134Z,3.10
2023-04-07T04:21:22.644Z,3.20
2023-04-07T04:23:54.035Z,3.40
2023-04-07T04:26:26.330Z,3.60
2023-04-07T04:29:00.519Z,3.30
2023-04-07T04:31:31.794Z,3.20
2023-04-07T04:34:04.458Z,3.00
2023-04-07T04:36:37.885Z,3.10
2023-04-07T04:39:09.776Z,3.50
2023-04-07T04:41:43.240Z,3.70
2023-04-07T04:44:15.486Z,3.50
2023-04-07T04:46:46.665Z,3.30
2023-04-07T04:49:19.200Z,3.30
2023-04-07T04:51:52.445Z,3.70
2023-04-07T04:54:26.782Z,3.40
2023-04-07T04:56:58.321Z,3.00
2023-04-07T04:59:30.419Z,3.70
2023-04-07T05:02:07.392Z,3.70
2023-04-07T05:04:39.572Z,3.60
2023-04-07T05:07:27.064Z,3.60
2023-04-07T05:09:58.198Z,3.80
2023-04-07T05:12:29.220Z,3.60
2023-04-07T05:15:03.434Z,3.30
2023-04-07T05:17:34.863Z,3.50
2023-04-07T05:20:08.895Z,3.90
2023-04-07T05:22:41.816Z,3.30
2023-04-07T05:25:15.338Z,3.80
2023-04-07T05:27:47.371Z,3.40
2023-04-07T05:30:20.505Z,3.20
2023-04-07T05:32:51.819Z,3.00
2023-04-07T05:35:29.217Z,3.80
2023-04-07T05:38:01.746Z,3.30
2023-04-07T05:40:34.118Z,3.30
2023-04-07T05:43:07.301Z,3.40
2023-04-07T05:45:38.658Z,3.90
2023-04-07T05:48:11.090Z,3.80
2023-04-07T05:50:46.697Z,3.60
2023-04-07T05:53:21.748Z,3.30
2023-04-07T05:55:52.943Z,3.20
2023-04-07T05:58:30.201Z,3.30
2023-04-07T06:01:01.431Z,3.70
2023-04-07T06:03:33.020Z,3.10
2023-04-07T06:06:16.568Z,3.10
2023-04-07T06:08:49.716Z,3.50
2023-04-07T06:11:21.439Z,3.60
2023-04-07T06:13:53.426Z,3.70
2023-04-07T06:16:24.496Z,4.20
2023-04-07T06:18:56.348Z,4.00
2023-04-07T06:21:27.503Z,3.70
2023-04-07T06:23:58.621Z,4.70
2023-04-07T06:26:30.881Z,4.90
2023-04-07T06:29:02.273Z,4.40
2023-04-07T06:31:33.309Z,4.30
2023-04-07T06:34:04.683Z,4.30
2023-04-07T06:36:35.958Z,5.30
2023-04-07T06:39:07.516Z,5.50
2023-04-07T06:41:39.173Z,5.60
2023-04-07T06:44:10.811Z,5.10
2023-04-07T06:46:42.731Z,4.80
2023-04-07T06:49:13.807Z,4.50
2023-04-07T06:51:44.962Z,4.30
2023-04-07T06:54:16.386Z,3.90
2023-04-07T06:56:47.698Z,4.00
2023-04-07T06:59:19.300Z,3.90
2023-04-07T07:01:50.551Z,4.10
2023-04-07T07:04:22.048Z,4.10
2023-04-07T07:06:53.348Z,3.80
2023-04-07T07:09:24.773Z,4.90
2023-04-07T07:11:56.174Z,4.70
2023-04-07T07:14:27.437Z,5.00
2023-04-07T07:16:59.047Z,4.60
2023-04-07T07:19:30.404Z,4.40
2023-04-07T07:22:04.182Z,4.30
2023-04-07T07:24:35.522Z,5.00
2023-04-07T07:27:06.698Z,5.10
2023-04-07T07:29:37.869Z,4.90
2023-04-07T07:32:09.230Z,6.00
2023-04-07T07:34:40.696Z,4.60
2023-04-07T07:37:12.528Z,5.50
2023-04-07T07:39:43.967Z,5.70
2023-04-07T07:42:15.425Z,4.90
2023-04-07T07:44:46.841Z,5.20
2023-04-07T07:47:18.413Z,4.60
2023-04-07T07:49:49.815Z,5.00
2023-04-07T07:52:21.187Z,6.20
2023-04-07T07:54:53.236Z,5.20
2023-04-07T07:57:24.487Z,5.70
2023-04-07T07:59:56.106Z,5.60
2023-04-07T08:02:31.554Z,5.40
2023-04-07T08:05:03.537Z,5.00
2023-04-07T08:07:35.075Z,4.20
2023-04-07T08:10:07.289Z,4.10
2023-04-07T08:12:38.722Z,4.10
2023-04-07T08:15:11.538Z,4.00
2023-04-07T08:17:42.811Z,4.20
2023-04-07T08:20:16.387Z,4.30
2023-04-07T08:22:47.791Z,4.00
2023-04-07T08:25:19.155Z,4.20
2023-04-07T08:27:50.860Z,4.50
2023-04-07T08:30:22.542Z,4.60
2023-04-07T08:32:53.861Z,6.00
2023-04-07T08:35:25.490Z,4.10
2023-04-07T08:37:56.467Z,4.10
2023-04-07T08:40:27.627Z,4.70
2023-04-07T08:43:01.882Z,4.40
2023-04-07T08:45:35.257Z,3.80
2023-04-07T08:48:12.640Z,3.70
2023-04-07T08:50:47.308Z,3.90
2023-04-07T08:53:25.178Z,3.80
2023-04-07T08:55:57.232Z,4.00
2023-04-07T08:58:29.007Z,3.40
2023-04-07T09:01:00.512Z,3.50
2023-04-07T09:03:33.045Z,3.90
2023-04-07T09:06:05.080Z,5.20
2023-04-07T09:08:36.313Z,4.40
2023-04-07T09:11:08.026Z,4.30
2023-04-07T09:13:39.336Z,4.20
2023-04-07T09:16:11.043Z,4.10
2023-04-07T09:18:42.974Z,4.60
2023-04-07T09:21:15.635Z,5.10
2023-04-07T09:23:47.801Z,4.70
2023-04-07T09:26:29.804Z,4.40
2023-04-07T09:29:04.244Z,5.50
2023-04-07T09:31:50.376Z,5.30
2023-04-07T09:34:33.521Z,5.40
2023-04-07T09:37:06.383Z,6.00
2023-04-07T09:39:52.732Z,5.70
2023-04-07T09:42:24.173Z,6.00
2023-04-07T09:44:55.605Z,5.60
2023-04-07T09:47:30.833Z,5.40
2023-04-07T09:50:06.960Z,5.90
2023-04-07T09:52:53.109Z,7.80
2023-04-07T09:55:26.438Z,7.30
2023-04-07T09:57:58.597Z,7.10
2023-04-07T10:00:29.839Z,6.30
2023-04-07T10:03:01.885Z,5.10
2023-04-07T10:05:35.634Z,5.00
2023-04-07T10:08:07.512Z,4.70
2023-04-07T10:10:42.988Z,4.90
2023-04-07T10:13:14.817Z,4.90
2023-04-07T10:15:46.765Z,5.50
2023-04-07T10:18:19.379Z,5.40
2023-04-07T10:20:54.232Z,5.10
2023-04-07T10:23:30.793Z,4.50
2023-04-07T10:26:02.551Z,4.20
2023-04-07T10:28:35.531Z,4.80
2023-04-07T10:31:06.922Z,4.70
2023-04-07T10:33:50.938Z,3.70
2023-04-07T10:36:23.244Z,3.70
2023-04-07T10:39:21.484Z,4.20
2023-04-07T10:41:53.454Z,3.20
2023-04-07T10:44:51.659Z,4.10
2023-04-07T10:47:22.944Z,3.90
2023-04-07T10:50:23.749Z,3.70
2023-04-07T10:53:09.646Z,3.70
2023-04-07T10:55:42.260Z,3.10
2023-04-07T10:58:24.613Z,3.00
2023-04-07T11:01:31.658Z,3.70
2023-04-07T11:04:05.018Z,3.40
2023-04-07T11:06:36.296Z,4.10
2023-04-07T11:09:07.439Z,3.50
2023-04-07T11:11:43.730Z,3.50
2023-04-07T11:14:27.107Z,4.00
2023-04-07T11:16:59.272Z,4.60
2023-04-07T11:19:32.397Z,3.20
2023-04-07T11:22:29.293Z,3.00
2023-04-07T11:25:01.713Z,3.30
2023-04-07T11:27:33.367Z,2.90
2023-04-07T11:30:09.895Z,3.50
2023-04-07T11:32:41.319Z,3.20
2023-04-07T11:35:13.750Z,2.80
2023-04-07T11:37:44.899Z,4.00
2023-04-07T11:40:33.647Z,3.60
2023-04-07T11:43:16.714Z,3.70
2023-04-07T11:45:48.165Z,3.40
2023-04-07T11:48:32.768Z,3.40
2023-04-07T11:51:04.425Z,3.30
2023-04-07T11:53:38.108Z,3.20
2023-04-07T11:56:16.452Z,3.70
2023-04-07T11:58:52.188Z,3.70
2023-04-07T12:01:24.904Z,3.40
2023-04-07T12:04:02.225Z,2.70
2023-04-07T12:06:35.785Z,3.00
2023-04-07T12:09:07.738Z,3.10
2023-04-07T12:11:50.193Z,3.10
2023-04-07T12:14:21.448Z,2.50
2023-04-07T12:16:53.312Z,2.20
2023-04-07T12:19:24.886Z,2.60
2023-04-07T12:21:56.395Z,2.20
2023-04-07T12:24:28.818Z,2.90
2023-04-07T12:27:00.000Z,2.60
2023-04-07T12:29:31.418Z,2.20
2023-04-07T12:32:02.798Z,2.40
2023-04-07T12:34:37.558Z,2.50
2023-04-07T12:37:08.824Z,2.50
2023-04-07T12:39:40.190Z,2.70
2023-04-07T12:42:12.088Z,2.50
2023-04-07T12:44:43.446Z,2.50
2023-04-07T12:47:15.045Z,2.70
2023-04-07T12:49:47.883Z,2.60
2023-04-07T12:52:21.033Z,2.50
2023-04-07T12:54:52.644Z,2.70
2023-04-07T12:57:24.137Z,2.40
2023-04-07T12:59:55.682Z,2.20
2023-04-07T13:02:27.192Z,2.20
2023-04-07T13:04:59.103Z,2.40
2023-04-07T13:07:30.272Z,2.50
2023-04-07T13:10:01.381Z,2.50
2023-04-07T13:12:32.585Z,2.50
2023-04-07T13:15:04.176Z,2.30
2023-04-07T13:17:37.051Z,2.20
2023-04-07T13:20:11.005Z,2.00
2023-04-07T13:22:49.257Z,2.70
2023-04-07T13:25:26.898Z,2.60
2023-04-07T13:27:58.105Z,2.70
2023-04-07T13:30:29.376Z,2.70
2023-04-07T13:33:00.867Z,2.50
2023-04-07T13:35:35.989Z,2.80
2023-04-07T13:38:08.851Z,2.90
2023-04-07T13:40:40.215Z,3.20
2023-04-07T13:43:12.634Z,2.80
2023-04-07T13:45:43.606Z,3.00
2023-04-07T13:48:15.139Z,3.30
2023-04-07T13:50:46.301Z,3.00
2023-04-07T13:53:18.972Z,3.50
2023-04-07T13:55:50.638Z,3.00
2023-04-07T13:58:21.764Z,3.30
2023-04-07T14:00:53.330Z,3.00
2023-04-07T14:03:24.850Z,3.10
2023-04-07T14:06:00.810Z,2.70
2023-04-07T14:08:32.195Z,3.00
2023-04-07T14:11:03.962Z,2.70
2023-04-07T14:13:36.507Z,2.30
2023-04-07T14:16:09.454Z,2.10
2023-04-07T14:18:40.620Z,2.10
2023-04-07T14:21:11.990Z,2.00
2023-04-07T14:23:43.539Z,2.00
2023-04-07T14:26:15.021Z,1.70
2023-04-07T14:28:46.250Z,1.80
2023-04-07T14:31:18.036Z,1.90
2023-04-07T14:33:49.213Z,2.00
2023-04-07T14:36:20.424Z,1.90
2023-04-07T14:38:52.991Z,1.90
2023-04-07T14:41:24.431Z,2.30
2023-04-07T14:43:57.194Z,2.20
2023-04-07T14:46:29.001Z,1.90
2023-04-07T14:49:00.447Z,1.80
2023-04-07T14:51:31.704Z,1.90
2023-04-07T14:54:03.220Z,1.70
2023-04-07T14:56:34.008Z,1.80
2023-04-07T14:59:04.919Z,1.70
2023-04-07T15:01:36.153Z,1.50
2023-04-07T15:04:07.542Z,1.90
2023-04-07T15:06:38.740Z,1.80
2023-04-07T15:09:09.848Z,1.80
2023-04-07T15:11:40.979Z,2.10
2023-04-07T15:14:12.428Z,1.90
2023-04-07T15:16:44.089Z,1.80
2023-04-07T15:19:15.357Z,2.10
2023-04-07T15:21:46.557Z,2.00
2023-04-07T15:24:19.550Z,2.00
2023-04-07T15:26:51.158Z,2.00
2023-04-07T15:29:22.202Z,2.20
2023-04-07T15:31:53.710Z,2.20
2023-04-07T15:34:24.721Z,2.20
2023-04-07T15:36:56.697Z,2.20
2023-04-07T15:39:27.577Z,2.00
2023-04-07T15:41:58.592Z,2.30
2023-04-07T15:44:31.214Z,2.20
2023-04-07T15:47:02.443Z,2.30
2023-04-07T15:49:33.753Z,2.40
2023-04-07T15:52:05.445Z,2.50
2023-04-07T15:54:36.697Z,2.60
2023-04-07T15:57:08.066Z,2.60
2023-04-07T15:59:39.806Z,2.70
2023-04-07T16:02:13.054Z,2.70
2023-04-07T16:04:47.717Z,3.00
2023-04-07T16:07:19.118Z,2.50
2023-04-07T16:09:50.438Z,2.80
2023-04-07T16:12:22.639Z,2.80
2023-04-07T16:14:53.798Z,2.50
2023-04-07T16:17:24.877Z,2.50
2023-04-07T16:19:55.911Z,2.10
2023-04-07T16:22:27.324Z,2.20
2023-04-07T16:24:58.377Z,2.40
2023-04-07T16:27:29.715Z,2.30
2023-04-07T16:30:00.852Z,2.40
2023-04-07T16:32:32.467Z,2.40
2023-04-07T16:35:03.823Z,2.10
2023-04-07T16:37:35.003Z,2.30
2023-04-07T16:40:07.198Z,2.20
2023-04-07T16:42:38.510Z,2.00
2023-04-07T16:45:12.096Z,2.10
2023-04-07T16:47:44.697Z,2.20
2023-04-07T16:50:16.269Z,2.00
2023-04-07T16:52:48.162Z,1.80
2023-04-07T16:55:19.596Z,2.00
2023-04-07T16:57:51.736Z,1.70
2023-04-07T17:00:23.602Z,1.90
2023-04-07T17:02:55.237Z,1.90
2023-04-07T17:05:27.404Z,2.30
2023-04-07T17:07:58.976Z,2.00
2023-04-07T17:10:30.216Z,1.80
2023-04-07T17:13:01.753Z,1.90
2023-04-07T17:15:36.776Z,1.80
2023-04-07T17:18:08.520Z,1.80
2023-04-07T17:20:39.752Z,2.20
2023-04-07T17:23:11.648Z,2.00
2023-04-07T17:25:43.092Z,1.80
2023-04-07T17:28:14.753Z,2.10
2023-04-07T17:30:45.958Z,1.90
2023-04-07T17:33:17.619Z,3.00
2023-04-07T17:35:50.559Z,4.20
2023-04-07T17:38:22.523Z,3.70
2023-04-07T17:40:59.765Z,2.60
2023-04-07T17:43:31.955Z,2.20
2023-04-07T17:46:04.574Z,2.70
2023-04-07T17:48:36.002Z,2.50
2023-04-07T17:51:08.062Z,2.90
2023-04-07T17:53:40.252Z,3.90
2023-04-07T17:56:12.815Z,2.80
2023-04-07T17:58:45.502Z,2.90
2023-04-07T18:01:18.490Z,2.70
2023-04-07T18:03:49.904Z,2.40
2023-04-07T18:06:22.194Z,2.10
2023-04-07T18:08:53.229Z,2.20
2023-04-07T18:11:24.751Z,2.00
2023-04-07T18:13:56.609Z,2.00
2023-04-07T18:16:28.199Z,2.30
2023-04-07T18:19:00.566Z,2.30
2023-04-07T18:21:31.735Z,2.80
2023-04-07T18:24:03.161Z,2.70
2023-04-07T18:26:37.966Z,3.60
2023-04-07T18:29:10.945Z,3.60
2023-04-07T18:31:43.280Z,2.80
2023-04-07T18:34:14.835Z,3.30
2023-04-07T18:36:47.567Z,3.50
2023-04-07T18:39:19.666Z,3.40
2023-04-07T18:41:51.091Z,3.90
2023-04-07T18:44:22.326Z,4.40
2023-04-07T18:46:53.874Z,4.40
2023-04-07T18:49:27.180Z,4.50
2023-04-07T18:51:59.997Z,4.40
2023-04-07T18:54:31.418Z,4.70
2023-04-07T18:57:04.075Z,4.70
2023-04-07T18:59:35.541Z,4.20
2023-04-07T19:02:07.621Z,4.30
2023-04-07T19:04:38.798Z,4.50
2023-04-07T19:07:09.967Z,4.30
2023-04-07T19:09:42.654Z,4.10
2023-04-07T19:12:13.708Z,4.10
2023-04-07T19:14:44.959Z,3.80
2023-04-07T19:17:16.529Z,3.60
2023-04-07T19:19:47.677Z,3.30
2023-04-07T19:22:19.401Z,3.20
2023-04-07T19:24:50.673Z,3.00
2023-04-07T19:27:23.174Z,2.90
2023-04-07T19:29:54.533Z,3.40
2023-04-07T19:32:26.347Z,2.80
2023-04-07T19:34:57.607Z,3.00
2023-04-07T19:37:29.017Z,3.10
2023-04-07T19:40:03.290Z,2.80
2023-04-07T19:42:35.333Z,2.90
2023-04-07T19:45:08.364Z,3.20
2023-04-07T19:47:40.375Z,2.60
2023-04-07T19:50:14.355Z,2.40
2023-04-07T19:52:46.010Z,2.70
2023-04-07T19:55:17.229Z,2.50
2023-04-07T19:57:48.829Z,2.70
2023-04-07T20:00:20.534Z,2.90
2023-04-07T20:02:55.923Z,2.90
2023-04-07T20:05:27.456Z,3.40
2023-04-07T20:07:58.706Z,3.70
2023-04-07T20:10:30.593Z,3.60
2023-04-07T20:13:01.878Z,3.30
2023-04-07T20:15:32.762Z,3.10
2023-04-07T20:18:04.262Z,3.20
2023-04-07T20:20:37.111Z,3.40
2023-04-07T20:23:08.496Z,3.10
2023-04-07T20:25:39.690Z,3.40
2023-04-07T20:28:10.862Z,3.10
2023-04-07T20:30:42.353Z,3.20
2023-04-07T20:33:14.276Z,3.40
2023-04-07T20:35:45.816Z,3.90
2023-04-07T20:38:18.902Z,3.60
2023-04-07T20:40:50.030Z,3.60
2023-04-07T20:43:24.046Z,3.90
2023-04-07T20:45:55.637Z,3.30
2023-04-07T20:48:28.226Z,3.30
2023-04-07T20:51:01.074Z,3.10
2023-04-07T20:53:32.305Z,2.70
2023-04-07T20:56:03.602Z,2.40
2023-04-07T20:58:35.343Z,2.50
2023-04-07T21:01:06.738Z,2.10
2023-04-07T21:03:38.068Z,2.50
2023-04-07T21:06:09.788Z,2.00
2023-04-07T21:08:41.105Z,2.20
2023-04-07T21:11:12.201Z,2.20
2023-04-07T21:13:43.447Z,2.40
2023-04-07T21:16:14.786Z,2.30
2023-04-07T21:18:46.223Z,2.20
2023-04-07T21:21:17.670Z,2.50
2023-04-07T21:23:48.967Z,2.40
2023-04-07T21:26:19.889Z,2.50
2023-04-07T21:28:52.127Z,2.60
2023-04-07T21:31:27.939Z,2.50
2023-04-07T21:33:58.861Z,3.00
2023-04-07T21:36:31.641Z,2.80
2023-04-07T21:39:02.704Z,2.60
2023-04-07T21:41:33.984Z,2.60
2023-04-07T21:44:05.353Z,2.50
2023-04-07T21:46:38.017Z,2.30
2023-04-07T21:49:09.436Z,2.10
2023-04-07T21:51:41.063Z,2.10
2023-04-07T21:54:14.241Z,2.30
2023-04-07T21:56:48.944Z,2.60
2023-04-07T21:59:20.085Z,2.30
2023-04-07T22:01:51.711Z,2.30
2023-04-07T22:04:23.336Z,2.20
2023-04-07T22:06:54.602Z,2.50
2023-04-07T22:09:27.715Z,2.50
2023-04-07T22:11:59.075Z,2.40
2023-04-07T22:14:30.294Z,2.80
2023-04-07T22:17:01.287Z,2.70
2023-04-07T22:19:32.533Z,2.80
2023-04-07T22:22:03.938Z,2.80
2023-04-07T22:24:35.268Z,3.30
2023-04-07T22:27:06.817Z,3.00
2023-04-07T22:29:38.468Z,3.40
2023-04-07T22:32:09.877Z,3.30
2023-04-07T22:34:43.134Z,3.00
2023-04-07T22:37:14.659Z,3.00
2023-04-07T22:39:46.381Z,3.00
2023-04-07T22:42:17.716Z,3.00
2023-04-07T22:44:49.199Z,3.00
2023-04-07T22:47:21.470Z,3.10
2023-04-07T22:49:52.625Z,3.70
2023-04-07T22:52:23.684Z,3.40
2023-04-07T22:54:55.358Z,3.70
2023-04-07T22:57:26.726Z,3.40
2023-04-07T22:59:58.061Z,3.50
2023-04-07T23:02:29.475Z,3.50
2023-04-07T23:05:00.927Z,3.90
2023-04-07T23:07:32.230Z,4.20
2023-04-07T23:10:03.391Z,3.80
2023-04-07T23:12:35.148Z,3.70
2023-04-07T23:15:07.784Z,3.50
2023-04-07T23:17:39.430Z,3.50
2023-04-07T23:20:13.202Z,3.00
2023-04-07T23:22:44.636Z,3.40
2023-04-07T23:25:15.671Z,3.00
2023-04-07T23:27:46.947Z,2.70
2023-04-07T23:30:18.754Z,2.60
2023-04-07T23:32:50.179Z,3.00
2023-04-07T23:35:21.552Z,2.90
2023-04-07T23:37:52.745Z,2.70
2023-04-07T23:40:24.044Z,2.60
2023-04-07T23:42:55.174Z,2.60
2023-04-07T23:45:26.506Z,3.10
2023-04-07T23:47:57.455Z,2.70
2023-04-07T23:50:29.105Z,2.90
2023-04-07T23:53:00.599Z,3.10
2023-04-07T23:55:31.732Z,2.70
2023-04-07T23:58:03.105Z,2.40
